sensor_id;sensor_type;location;lat;lon;timestamp;temperature;humidity
18103;DHT22;9178;51.120;6.192;2023-05-21T00:01:58;12.70;99.90
18103;DHT22;9178;51.120;6.192;2023-05-21T00:04:26;12.70;99.90
18103;DHT22;9178;51.120;6.192;2023-05-21T00:06:54;12.70;99.90
18103;DHT22;9178;51.120;6.192;2023-05-21T00:09:21;12.60;99.90
18103;DHT22;9178;51.120;6.192;2023-05-21T00:11:48;12.60;99.90
18103;DHT22;9178;51.120;6.192;2023-05-21T00:14:26;12.60;99.90
18103;DHT22;9178;51.120;6.192;2023-05-21T00:16:55;12.60;99.90
18103;DHT22;9178;51.120;6.192;2023-05-21T00:19:22;12.50;99.90
18103;DHT22;9178;51.120;6.192;2023-05-21T00:21:48;12.50;99.90
18103;DHT22;9178;51.120;6.192;2023-05-21T00:24:16;12.50;99.90
18103;DHT22;9178;51.120;6.192;2023-05-21T00:26:42;12.50;99.90
18103;DHT22;9178;51.120;6.192;2023-05-21T00:29:09;12.50;99.90
18103;DHT22;9178;51.120;6.192;2023-05-21T00:31:38;12.50;99.90
18103;DHT22;9178;51.120;6.192;2023-05-21T00:34:05;12.50;99.90
18103;DHT22;9178;51.120;6.192;2023-05-21T00:36:31;12.40;99.90
18103;DHT22;9178;51.120;6.192;2023-05-21T00:38:59;12.40;99.90
18103;DHT22;9178;51.120;6.192;2023-05-21T00:41:27;12.40;99.90
18103;DHT22;9178;51.120;6.192;2023-05-21T00:43:57;12.30;99.90
18103;DHT22;9178;51.120;6.192;2023-05-21T00:46:28;12.30;99.90
18103;DHT22;9178;51.120;6.192;2023-05-21T00:49:00;12.30;99.90
18103;DHT22;9178;51.120;6.192;2023-05-21T00:51:27;12.30;99.90
18103;DHT22;9178;51.120;6.192;2023-05-21T00:53:57;12.30;99.90
18103;DHT22;9178;51.120;6.192;2023-05-21T00:56:24;12.30;99.90
18103;DHT22;9178;51.120;6.192;2023-05-21T00:58:58;12.30;99.90
18103;DHT22;9178;51.120;6.192;2023-05-21T01:01:31;12.30;99.90
18103;DHT22;9178;51.120;6.192;2023-05-21T01:04:03;12.30;99.90
18103;DHT22;9178;51.120;6.192;2023-05-21T01:06:29;12.20;99.90
18103;DHT22;9178;51.120;6.192;2023-05-21T01:09:00;12.20;99.90
18103;DHT22;9178;51.120;6.192;2023-05-21T01:11:37;12.30;99.90
18103;DHT22;9178;51.120;6.192;2023-05-21T01:14:09;12.20;99.90
18103;DHT22;9178;51.120;6.192;2023-05-21T01:16:38;12.20;99.90
18103;DHT22;9178;51.120;6.192;2023-05-21T01:19:16;12.20;99.90
18103;DHT22;9178;51.120;6.192;2023-05-21T01:21:49;12.20;99.90
18103;DHT22;9178;51.120;6.192;2023-05-21T01:24:27;12.20;99.90
18103;DHT22;9178;51.120;6.192;2023-05-21T01:26:54;12.20;99.90
18103;DHT22;9178;51.120;6.192;2023-05-21T01:29:23;12.20;99.90
18103;DHT22;9178;51.120;6.192;2023-05-21T01:32:01;12.20;99.90
18103;DHT22;9178;51.120;6.192;2023-05-21T01:34:34;12.20;99.90
18103;DHT22;9178;51.120;6.192;2023-05-21T01:37:12;12.10;99.90
18103;DHT22;9178;51.120;6.192;2023-05-21T01:39:43;12.10;99.90
18103;DHT22;9178;51.120;6.192;2023-05-21T01:42:14;12.10;99.90
18103;DHT22;9178;51.120;6.192;2023-05-21T01:44:42;12.10;99.90
18103;DHT22;9178;51.120;6.192;2023-05-21T01:47:13;12.10;99.90
18103;DHT22;9178;51.120;6.192;2023-05-21T01:49:42;12.20;99.90
18103;DHT22;9178;51.120;6.192;2023-05-21T01:52:10;12.20;99.90
18103;DHT22;9178;51.120;6.192;2023-05-21T01:54:37;12.20;99.90
18103;DHT22;9178;51.120;6.192;2023-05-21T01:57:05;12.20;99.90
18103;DHT22;9178;51.120;6.192;2023-05-21T01:59:36;12.20;99.90
18103;DHT22;9178;51.120;6.192;2023-05-21T02:02:06;12.20;99.90
18103;DHT22;9178;51.120;6.192;2023-05-21T02:04:36;12.20;99.90
18103;DHT22;9178;51.120;6.192;2023-05-21T02:07:06;12.20;99.90
18103;DHT22;9178;51.120;6.192;2023-05-21T02:09:35;12.20;99.90
18103;DHT22;9178;51.120;6.192;2023-05-21T02:12:02;12.20;99.90
18103;DHT22;9178;51.120;6.192;2023-05-21T02:14:31;12.20;99.90
18103;DHT22;9178;51.120;6.192;2023-05-21T02:16:59;12.20;99.90
18103;DHT22;9178;51.120;6.192;2023-05-21T02:19:26;12.20;99.90
18103;DHT22;9178;51.120;6.192;2023-05-21T02:21:55;12.20;99.90
18103;DHT22;9178;51.120;6.192;2023-05-21T02:24:25;12.20;99.90
18103;DHT22;9178;51.120;6.192;2023-05-21T02:26:52;12.20;99.90
18103;DHT22;9178;51.120;6.192;2023-05-21T02:32:03;12.20;99.90
18103;DHT22;9178;51.120;6.192;2023-05-21T02:34:30;12.20;99.90
18103;DHT22;9178;51.120;6.192;2023-05-21T02:36:59;12.20;99.90
18103;DHT22;9178;51.120;6.192;2023-05-21T02:39:26;12.20;99.90
18103;DHT22;9178;51.120;6.192;2023-05-21T02:41:56;12.20;99.90
18103;DHT22;9178;51.120;6.192;2023-05-21T02:44:23;12.20;99.90
18103;DHT22;9178;51.120;6.192;2023-05-21T02:46:52;12.20;99.90
18103;DHT22;9178;51.120;6.192;2023-05-21T02:49:21;12.20;99.90
18103;DHT22;9178;51.120;6.192;2023-05-21T02:51:50;12.20;99.90
18103;DHT22;9178;51.120;6.192;2023-05-21T02:54:17;12.20;99.90
18103;DHT22;9178;51.120;6.192;2023-05-21T02:56:46;12.20;99.90
18103;DHT22;9178;51.120;6.192;2023-05-21T02:59:15;12.20;99.90
18103;DHT22;9178;51.120;6.192;2023-05-21T03:01:41;12.20;99.90
18103;DHT22;9178;51.120;6.192;2023-05-21T03:04:09;12.20;99.90
18103;DHT22;9178;51.120;6.192;2023-05-21T03:06:37;12.20;99.90
18103;DHT22;9178;51.120;6.192;2023-05-21T03:09:04;12.20;99.90
18103;DHT22;9178;51.120;6.192;2023-05-21T03:11:34;12.20;99.90
18103;DHT22;9178;51.120;6.192;2023-05-21T03:14:12;12.20;99.90
18103;DHT22;9178;51.120;6.192;2023-05-21T03:16:39;12.20;99.90
18103;DHT22;9178;51.120;6.192;2023-05-21T03:19:08;12.20;99.90
18103;DHT22;9178;51.120;6.192;2023-05-21T03:21:45;12.20;99.90
18103;DHT22;9178;51.120;6.192;2023-05-21T03:24:13;12.20;99.90
18103;DHT22;9178;51.120;6.192;2023-05-21T03:26:40;12.20;99.90
18103;DHT22;9178;51.120;6.192;2023-05-21T03:29:07;12.20;99.90
18103;DHT22;9178;51.120;6.192;2023-05-21T03:31:34;12.20;99.90
18103;DHT22;9178;51.120;6.192;2023-05-21T03:34:03;12.20;99.90
18103;DHT22;9178;51.120;6.192;2023-05-21T03:36:35;12.20;99.90
18103;DHT22;9178;51.120;6.192;2023-05-21T03:39:06;12.20;99.90
18103;DHT22;9178;51.120;6.192;2023-05-21T03:41:33;12.20;99.90
18103;DHT22;9178;51.120;6.192;2023-05-21T03:44:09;12.10;99.90
18103;DHT22;9178;51.120;6.192;2023-05-21T03:46:36;12.20;99.90
18103;DHT22;9178;51.120;6.192;2023-05-21T03:49:03;12.10;99.90
18103;DHT22;9178;51.120;6.192;2023-05-21T03:51:30;12.20;99.90
18103;DHT22;9178;51.120;6.192;2023-05-21T03:53:57;12.10;99.90
18103;DHT22;9178;51.120;6.192;2023-05-21T03:56:27;12.20;99.90
18103;DHT22;9178;51.120;6.192;2023-05-21T03:59:02;12.10;99.90
18103;DHT22;9178;51.120;6.192;2023-05-21T04:01:31;12.10;99.90
18103;DHT22;9178;51.120;6.192;2023-05-21T04:03:59;12.20;99.90
18103;DHT22;9178;51.120;6.192;2023-05-21T04:06:26;12.20;99.90
18103;DHT22;9178;51.120;6.192;2023-05-21T04:08:54;12.20;99.90
18103;DHT22;9178;51.120;6.192;2023-05-21T04:11:21;12.20;99.90
18103;DHT22;9178;51.120;6.192;2023-05-21T04:13:49;12.20;99.90
18103;DHT22;9178;51.120;6.192;2023-05-21T04:16:19;12.20;99.90
18103;DHT22;9178;51.120;6.192;2023-05-21T04:18:46;12.20;99.90
18103;DHT22;9178;51.120;6.192;2023-05-21T04:21:13;12.20;99.90
18103;DHT22;9178;51.120;6.192;2023-05-21T04:23:40;12.20;99.90
18103;DHT22;9178;51.120;6.192;2023-05-21T04:26:08;12.30;99.90
18103;DHT22;9178;51.120;6.192;2023-05-21T04:28:34;12.30;99.90
18103;DHT22;9178;51.120;6.192;2023-05-21T04:31:05;12.30;99.90
18103;DHT22;9178;51.120;6.192;2023-05-21T04:33:33;12.30;99.90
18103;DHT22;9178;51.120;6.192;2023-05-21T04:36:00;12.30;99.90
18103;DHT22;9178;51.120;6.192;2023-05-21T04:38:28;12.40;99.90
18103;DHT22;9178;51.120;6.192;2023-05-21T04:40:55;12.40;99.90
18103;DHT22;9178;51.120;6.192;2023-05-21T04:43:28;12.40;99.90
18103;DHT22;9178;51.120;6.192;2023-05-21T04:45:56;12.40;99.90
18103;DHT22;9178;51.120;6.192;2023-05-21T04:48:24;12.40;99.90
18103;DHT22;9178;51.120;6.192;2023-05-21T04:50:53;12.40;99.90
18103;DHT22;9178;51.120;6.192;2023-05-21T04:53:21;12.50;99.90
18103;DHT22;9178;51.120;6.192;2023-05-21T04:55:48;12.50;99.90
18103;DHT22;9178;51.120;6.192;2023-05-21T04:58:15;12.50;99.90
18103;DHT22;9178;51.120;6.192;2023-05-21T05:00:43;12.50;99.90
18103;DHT22;9178;51.120;6.192;2023-05-21T05:03:11;12.60;99.90
18103;DHT22;9178;51.120;6.192;2023-05-21T05:05:39;12.60;99.90
18103;DHT22;9178;51.120;6.192;2023-05-21T05:08:06;12.70;99.90
18103;DHT22;9178;51.120;6.192;2023-05-21T05:10:36;12.70;99.90
18103;DHT22;9178;51.120;6.192;2023-05-21T05:13:03;12.70;99.90
18103;DHT22;9178;51.120;6.192;2023-05-21T05:15:30;12.80;99.90
18103;DHT22;9178;51.120;6.192;2023-05-21T05:17:58;12.80;99.90
18103;DHT22;9178;51.120;6.192;2023-05-21T05:20:27;12.90;99.90
18103;DHT22;9178;51.120;6.192;2023-05-21T05:22:57;12.90;99.90
18103;DHT22;9178;51.120;6.192;2023-05-21T05:25:25;13.00;99.90
18103;DHT22;9178;51.120;6.192;2023-05-21T05:27:54;13.00;99.90
18103;DHT22;9178;51.120;6.192;2023-05-21T05:30:22;13.00;99.90
18103;DHT22;9178;51.120;6.192;2023-05-21T05:32:51;13.10;99.90
18103;DHT22;9178;51.120;6.192;2023-05-21T05:35:21;13.10;99.90
18103;DHT22;9178;51.120;6.192;2023-05-21T05:37:48;13.10;99.90
18103;DHT22;9178;51.120;6.192;2023-05-21T05:40:16;13.20;99.90
18103;DHT22;9178;51.120;6.192;2023-05-21T05:42:43;13.20;99.90
18103;DHT22;9178;51.120;6.192;2023-05-21T05:45:11;13.30;99.90
18103;DHT22;9178;51.120;6.192;2023-05-21T05:47:38;13.30;99.90
18103;DHT22;9178;51.120;6.192;2023-05-21T05:50:05;13.30;99.90
18103;DHT22;9178;51.120;6.192;2023-05-21T05:52:32;13.40;99.90
18103;DHT22;9178;51.120;6.192;2023-05-21T05:54:59;13.40;99.90
18103;DHT22;9178;51.120;6.192;2023-05-21T05:57:28;13.50;99.90
18103;DHT22;9178;51.120;6.192;2023-05-21T05:59:56;13.60;99.90
18103;DHT22;9178;51.120;6.192;2023-05-21T06:02:23;13.60;99.90
18103;DHT22;9178;51.120;6.192;2023-05-21T06:04:53;13.70;99.90
18103;DHT22;9178;51.120;6.192;2023-05-21T06:07:20;13.80;99.90
18103;DHT22;9178;51.120;6.192;2023-05-21T06:09:50;13.80;99.90
18103;DHT22;9178;51.120;6.192;2023-05-21T06:12:17;13.90;99.90
18103;DHT22;9178;51.120;6.192;2023-05-21T06:14:45;14.00;99.90
18103;DHT22;9178;51.120;6.192;2023-05-21T06:17:13;14.00;99.90
18103;DHT22;9178;51.120;6.192;2023-05-21T06:19:40;14.10;99.90
18103;DHT22;9178;51.120;6.192;2023-05-21T06:22:09;14.20;99.90
18103;DHT22;9178;51.120;6.192;2023-05-21T06:24:36;14.20;99.90
18103;DHT22;9178;51.120;6.192;2023-05-21T06:27:03;14.30;99.90
18103;DHT22;9178;51.120;6.192;2023-05-21T06:29:33;14.40;99.90
18103;DHT22;9178;51.120;6.192;2023-05-21T06:32:02;14.40;99.90
18103;DHT22;9178;51.120;6.192;2023-05-21T06:34:29;14.50;99.90
18103;DHT22;9178;51.120;6.192;2023-05-21T06:36:56;14.50;99.90
18103;DHT22;9178;51.120;6.192;2023-05-21T06:39:24;14.60;99.90
18103;DHT22;9178;51.120;6.192;2023-05-21T06:41:52;14.70;99.90
18103;DHT22;9178;51.120;6.192;2023-05-21T06:44:22;14.80;99.90
18103;DHT22;9178;51.120;6.192;2023-05-21T06:46:49;14.90;99.90
18103;DHT22;9178;51.120;6.192;2023-05-21T06:49:17;15.00;99.90
18103;DHT22;9178;51.120;6.192;2023-05-21T06:51:44;15.00;99.90
18103;DHT22;9178;51.120;6.192;2023-05-21T06:54:12;15.10;99.90
18103;DHT22;9178;51.120;6.192;2023-05-21T06:56:39;15.10;99.90
18103;DHT22;9178;51.120;6.192;2023-05-21T06:59:06;15.30;99.90
18103;DHT22;9178;51.120;6.192;2023-05-21T07:01:33;15.40;99.90
18103;DHT22;9178;51.120;6.192;2023-05-21T07:04:00;15.50;99.90
18103;DHT22;9178;51.120;6.192;2023-05-21T07:06:29;15.60;99.90
18103;DHT22;9178;51.120;6.192;2023-05-21T07:09:00;15.70;99.90
18103;DHT22;9178;51.120;6.192;2023-05-21T07:11:27;15.80;99.90
18103;DHT22;9178;51.120;6.192;2023-05-21T07:14:02;15.90;99.90
18103;DHT22;9178;51.120;6.192;2023-05-21T07:16:29;16.00;99.90
18103;DHT22;9178;51.120;6.192;2023-05-21T07:18:59;16.10;99.90
18103;DHT22;9178;51.120;6.192;2023-05-21T07:21:26;16.20;99.90
18103;DHT22;9178;51.120;6.192;2023-05-21T07:23:54;16.30;99.90
18103;DHT22;9178;51.120;6.192;2023-05-21T07:26:21;16.40;99.90
18103;DHT22;9178;51.120;6.192;2023-05-21T07:28:50;16.40;99.90
18103;DHT22;9178;51.120;6.192;2023-05-21T07:31:17;16.60;99.90
18103;DHT22;9178;51.120;6.192;2023-05-21T07:33:44;16.70;99.90
18103;DHT22;9178;51.120;6.192;2023-05-21T07:36:12;16.80;99.90
18103;DHT22;9178;51.120;6.192;2023-05-21T07:38:39;16.90;99.90
18103;DHT22;9178;51.120;6.192;2023-05-21T07:41:07;17.10;99.90
18103;DHT22;9178;51.120;6.192;2023-05-21T07:43:35;17.20;99.90
18103;DHT22;9178;51.120;6.192;2023-05-21T07:46:02;17.30;99.90
18103;DHT22;9178;51.120;6.192;2023-05-21T07:48:29;17.50;99.90
18103;DHT22;9178;51.120;6.192;2023-05-21T07:50:57;17.50;99.90
18103;DHT22;9178;51.120;6.192;2023-05-21T07:53:24;17.50;99.90
18103;DHT22;9178;51.120;6.192;2023-05-21T07:55:51;17.60;99.90
18103;DHT22;9178;51.120;6.192;2023-05-21T07:58:20;17.70;99.90
18103;DHT22;9178;51.120;6.192;2023-05-21T08:00:48;17.70;99.90
18103;DHT22;9178;51.120;6.192;2023-05-21T08:03:17;17.80;99.90
18103;DHT22;9178;51.120;6.192;2023-05-21T08:05:45;17.80;99.90
18103;DHT22;9178;51.120;6.192;2023-05-21T08:08:15;17.90;99.90
18103;DHT22;9178;51.120;6.192;2023-05-21T08:10:42;18.00;99.90
18103;DHT22;9178;51.120;6.192;2023-05-21T08:13:10;18.00;99.90
18103;DHT22;9178;51.120;6.192;2023-05-21T08:15:39;18.10;99.90
18103;DHT22;9178;51.120;6.192;2023-05-21T08:18:06;18.20;99.90
18103;DHT22;9178;51.120;6.192;2023-05-21T08:20:33;18.10;99.90
18103;DHT22;9178;51.120;6.192;2023-05-21T08:23:00;18.10;99.90
18103;DHT22;9178;51.120;6.192;2023-05-21T08:25:27;18.20;99.90
18103;DHT22;9178;51.120;6.192;2023-05-21T08:27:55;18.20;99.90
18103;DHT22;9178;51.120;6.192;2023-05-21T08:30:22;18.20;99.90
18103;DHT22;9178;51.120;6.192;2023-05-21T08:32:50;18.10;99.90
18103;DHT22;9178;51.120;6.192;2023-05-21T08:35:18;18.10;99.90
18103;DHT22;9178;51.120;6.192;2023-05-21T08:37:45;18.10;99.90
18103;DHT22;9178;51.120;6.192;2023-05-21T08:40:12;18.10;99.90
18103;DHT22;9178;51.120;6.192;2023-05-21T08:42:45;18.10;99.90
18103;DHT22;9178;51.120;6.192;2023-05-21T08:45:13;18.20;99.90
18103;DHT22;9178;51.120;6.192;2023-05-21T08:47:42;18.20;99.90
18103;DHT22;9178;51.120;6.192;2023-05-21T08:50:12;18.20;99.90
18103;DHT22;9178;51.120;6.192;2023-05-21T08:52:40;18.10;99.90
18103;DHT22;9178;51.120;6.192;2023-05-21T08:55:08;18.20;99.90
18103;DHT22;9178;51.120;6.192;2023-05-21T08:57:36;18.30;99.90
18103;DHT22;9178;51.120;6.192;2023-05-21T09:00:04;18.40;99.90
18103;DHT22;9178;51.120;6.192;2023-05-21T09:02:33;18.60;99.90
18103;DHT22;9178;51.120;6.192;2023-05-21T09:05:03;18.80;99.90
18103;DHT22;9178;51.120;6.192;2023-05-21T09:07:38;19.10;99.90
18103;DHT22;9178;51.120;6.192;2023-05-21T09:10:11;19.40;99.90
18103;DHT22;9178;51.120;6.192;2023-05-21T09:12:39;19.70;99.90
18103;DHT22;9178;51.120;6.192;2023-05-21T09:15:07;20.00;99.90
18103;DHT22;9178;51.120;6.192;2023-05-21T09:17:34;20.20;99.90
18103;DHT22;9178;51.120;6.192;2023-05-21T09:20:09;20.40;99.90
18103;DHT22;9178;51.120;6.192;2023-05-21T09:22:40;20.40;99.90
18103;DHT22;9178;51.120;6.192;2023-05-21T09:25:09;20.70;99.90
18103;DHT22;9178;51.120;6.192;2023-05-21T09:27:38;20.90;99.90
18103;DHT22;9178;51.120;6.192;2023-05-21T09:30:10;21.00;99.90
18103;DHT22;9178;51.120;6.192;2023-05-21T09:32:37;21.20;99.90
18103;DHT22;9178;51.120;6.192;2023-05-21T09:35:06;20.80;99.90
18103;DHT22;9178;51.120;6.192;2023-05-21T09:37:36;20.70;99.90
18103;DHT22;9178;51.120;6.192;2023-05-21T09:40:14;20.70;99.90
18103;DHT22;9178;51.120;6.192;2023-05-21T09:42:44;20.60;99.90
18103;DHT22;9178;51.120;6.192;2023-05-21T09:45:11;20.60;99.90
18103;DHT22;9178;51.120;6.192;2023-05-21T09:47:40;20.60;99.90
18103;DHT22;9178;51.120;6.192;2023-05-21T09:50:11;20.80;99.90
18103;DHT22;9178;51.120;6.192;2023-05-21T09:52:39;20.90;99.90
18103;DHT22;9178;51.120;6.192;2023-05-21T09:55:07;21.10;99.90
18103;DHT22;9178;51.120;6.192;2023-05-21T09:57:41;21.30;99.90
18103;DHT22;9178;51.120;6.192;2023-05-21T10:00:16;21.60;99.90
18103;DHT22;9178;51.120;6.192;2023-05-21T10:02:44;22.00;99.90
18103;DHT22;9178;51.120;6.192;2023-05-21T10:05:13;22.60;99.90
18103;DHT22;9178;51.120;6.192;2023-05-21T10:07:43;23.20;99.90
18103;DHT22;9178;51.120;6.192;2023-05-21T10:10:13;23.80;99.90
18103;DHT22;9178;51.120;6.192;2023-05-21T10:12:44;24.10;99.90
18103;DHT22;9178;51.120;6.192;2023-05-21T10:15:14;24.30;99.90
18103;DHT22;9178;51.120;6.192;2023-05-21T10:17:42;24.70;99.90
18103;DHT22;9178;51.120;6.192;2023-05-21T10:20:11;25.10;99.90
18103;DHT22;9178;51.120;6.192;2023-05-21T10:22:38;25.10;99.90
18103;DHT22;9178;51.120;6.192;2023-05-21T10:25:06;25.00;99.90
18103;DHT22;9178;51.120;6.192;2023-05-21T10:27:34;25.10;99.90
18103;DHT22;9178;51.120;6.192;2023-05-21T10:30:04;25.70;99.90
18103;DHT22;9178;51.120;6.192;2023-05-21T10:32:32;26.40;99.90
18103;DHT22;9178;51.120;6.192;2023-05-21T10:35:00;26.80;99.90
18103;DHT22;9178;51.120;6.192;2023-05-21T10:37:27;26.70;99.90
18103;DHT22;9178;51.120;6.192;2023-05-21T10:39:55;26.20;99.90
18103;DHT22;9178;51.120;6.192;2023-05-21T10:42:51;25.90;99.90
18103;DHT22;9178;51.120;6.192;2023-05-21T10:45:44;25.90;99.90
18103;DHT22;9178;51.120;6.192;2023-05-21T10:48:32;25.60;99.90
18103;DHT22;9178;51.120;6.192;2023-05-21T10:51:13;25.60;99.90
18103;DHT22;9178;51.120;6.192;2023-05-21T10:56:44;26.00;99.90
18103;DHT22;9178;51.120;6.192;2023-05-21T10:59:15;26.00;99.90
18103;DHT22;9178;51.120;6.192;2023-05-21T11:01:50;25.60;99.90
18103;DHT22;9178;51.120;6.192;2023-05-21T11:04:21;25.50;99.90
18103;DHT22;9178;51.120;6.192;2023-05-21T11:06:48;25.90;99.90
18103;DHT22;9178;51.120;6.192;2023-05-21T11:09:15;26.40;99.90
18103;DHT22;9178;51.120;6.192;2023-05-21T11:11:44;27.10;99.90
18103;DHT22;9178;51.120;6.192;2023-05-21T11:14:40;27.50;99.90
18103;DHT22;9178;51.120;6.192;2023-05-21T11:17:14;27.70;99.90
18103;DHT22;9178;51.120;6.192;2023-05-21T11:19:42;28.00;99.90
18103;DHT22;9178;51.120;6.192;2023-05-21T11:22:21;28.10;99.90
18103;DHT22;9178;51.120;6.192;2023-05-21T11:24:49;28.40;99.90
18103;DHT22;9178;51.120;6.192;2023-05-21T11:27:30;28.80;99.90
18103;DHT22;9178;51.120;6.192;2023-05-21T11:29:58;29.00;99.30
18103;DHT22;9178;51.120;6.192;2023-05-21T11:32:30;28.70;99.90
18103;DHT22;9178;51.120;6.192;2023-05-21T11:35:02;28.80;99.90
18103;DHT22;9178;51.120;6.192;2023-05-21T11:37:33;28.60;99.90
18103;DHT22;9178;51.120;6.192;2023-05-21T11:40:32;28.30;99.70
18103;DHT22;9178;51.120;6.192;2023-05-21T11:43:01;28.30;99.90
18103;DHT22;9178;51.120;6.192;2023-05-21T11:45:30;28.40;99.90
18103;DHT22;9178;51.120;6.192;2023-05-21T11:47:59;28.50;99.90
18103;DHT22;9178;51.120;6.192;2023-05-21T11:50:29;28.80;99.90
18103;DHT22;9178;51.120;6.192;2023-05-21T11:52:58;29.10;99.90
18103;DHT22;9178;51.120;6.192;2023-05-21T11:55:26;29.20;99.90
18103;DHT22;9178;51.120;6.192;2023-05-21T11:57:53;29.40;99.10
18103;DHT22;9178;51.120;6.192;2023-05-21T12:00:21;29.50;99.10
18103;DHT22;9178;51.120;6.192;2023-05-21T12:02:51;29.70;98.80
18103;DHT22;9178;51.120;6.192;2023-05-21T12:05:21;29.80;97.50
18103;DHT22;9178;51.120;6.192;2023-05-21T12:07:49;29.90;98.70
18103;DHT22;9178;51.120;6.192;2023-05-21T12:10:20;29.80;97.40
18103;DHT22;9178;51.120;6.192;2023-05-21T12:12:49;30.10;97.00
18103;DHT22;9178;51.120;6.192;2023-05-21T12:15:17;30.50;96.50
18103;DHT22;9178;51.120;6.192;2023-05-21T12:17:49;30.70;96.40
18103;DHT22;9178;51.120;6.192;2023-05-21T12:20:17;31.00;96.30
18103;DHT22;9178;51.120;6.192;2023-05-21T12:22:47;31.20;95.30
18103;DHT22;9178;51.120;6.192;2023-05-21T12:25:16;31.50;95.30
18103;DHT22;9178;51.120;6.192;2023-05-21T12:27:45;31.40;95.30
18103;DHT22;9178;51.120;6.192;2023-05-21T12:30:12;31.70;93.70
18103;DHT22;9178;51.120;6.192;2023-05-21T12:32:42;31.80;93.80
18103;DHT22;9178;51.120;6.192;2023-05-21T12:35:20;31.70;93.10
18103;DHT22;9178;51.120;6.192;2023-05-21T12:37:49;31.80;93.20
18103;DHT22;9178;51.120;6.192;2023-05-21T12:40:17;31.90;92.80
18103;DHT22;9178;51.120;6.192;2023-05-21T12:42:46;32.00;92.20
18103;DHT22;9178;51.120;6.192;2023-05-21T12:45:16;31.60;91.60
18103;DHT22;9178;51.120;6.192;2023-05-21T12:47:47;30.40;91.10
18103;DHT22;9178;51.120;6.192;2023-05-21T12:50:20;29.60;92.50
18103;DHT22;9178;51.120;6.192;2023-05-21T12:52:53;29.60;93.90
18103;DHT22;9178;51.120;6.192;2023-05-21T12:55:22;30.60;94.40
18103;DHT22;9178;51.120;6.192;2023-05-21T12:58:00;31.40;93.10
18103;DHT22;9178;51.120;6.192;2023-05-21T13:00:33;31.80;90.40
18103;DHT22;9178;51.120;6.192;2023-05-21T13:03:01;30.80;91.20
18103;DHT22;9178;51.120;6.192;2023-05-21T13:05:30;30.80;94.00
18103;DHT22;9178;51.120;6.192;2023-05-21T13:08:10;31.30;91.90
18103;DHT22;9178;51.120;6.192;2023-05-21T13:10:39;31.40;92.20
18103;DHT22;9178;51.120;6.192;2023-05-21T13:13:06;31.50;92.10
18103;DHT22;9178;51.120;6.192;2023-05-21T13:15:42;31.80;92.30
18103;DHT22;9178;51.120;6.192;2023-05-21T13:18:09;32.00;90.90
18103;DHT22;9178;51.120;6.192;2023-05-21T13:20:37;31.90;91.00
18103;DHT22;9178;51.120;6.192;2023-05-21T13:23:04;32.20;91.20
18103;DHT22;9178;51.120;6.192;2023-05-21T13:25:41;32.50;90.50
18103;DHT22;9178;51.120;6.192;2023-05-21T13:28:09;32.40;88.60
18103;DHT22;9178;51.120;6.192;2023-05-21T13:30:39;32.50;90.50
18103;DHT22;9178;51.120;6.192;2023-05-21T13:33:06;32.60;88.50
18103;DHT22;9178;51.120;6.192;2023-05-21T13:35:34;32.10;90.90
18103;DHT22;9178;51.120;6.192;2023-05-21T13:38:01;32.30;90.70
18103;DHT22;9178;51.120;6.192;2023-05-21T13:40:29;32.70;87.90
18103;DHT22;9178;51.120;6.192;2023-05-21T13:42:59;32.60;86.50
18103;DHT22;9178;51.120;6.192;2023-05-21T13:45:27;32.60;86.00
18103;DHT22;9178;51.120;6.192;2023-05-21T13:47:57;32.70;88.30
18103;DHT22;9178;51.120;6.192;2023-05-21T13:50:25;32.60;87.40
18103;DHT22;9178;51.120;6.192;2023-05-21T13:52:52;32.80;87.40
18103;DHT22;9178;51.120;6.192;2023-05-21T13:55:19;33.00;87.40
18103;DHT22;9178;51.120;6.192;2023-05-21T13:57:49;33.10;87.70
18103;DHT22;9178;51.120;6.192;2023-05-21T14:00:20;33.30;85.70
18103;DHT22;9178;51.120;6.192;2023-05-21T14:02:47;33.30;87.00
18103;DHT22;9178;51.120;6.192;2023-05-21T14:05:14;33.00;85.80
18103;DHT22;9178;51.120;6.192;2023-05-21T14:07:41;32.80;86.90
18103;DHT22;9178;51.120;6.192;2023-05-21T14:10:08;33.20;84.00
18103;DHT22;9178;51.120;6.192;2023-05-21T14:12:36;33.20;83.30
18103;DHT22;9178;51.120;6.192;2023-05-21T14:15:04;32.70;82.70
18103;DHT22;9178;51.120;6.192;2023-05-21T14:17:32;32.40;87.30
18103;DHT22;9178;51.120;6.192;2023-05-21T14:19:59;32.60;83.00
18103;DHT22;9178;51.120;6.192;2023-05-21T14:22:26;32.80;85.10
18103;DHT22;9178;51.120;6.192;2023-05-21T14:24:53;33.10;85.30
18103;DHT22;9178;51.120;6.192;2023-05-21T14:27:27;33.00;87.40
18103;DHT22;9178;51.120;6.192;2023-05-21T14:29:54;33.10;85.40
18103;DHT22;9178;51.120;6.192;2023-05-21T14:32:21;32.70;83.90
18103;DHT22;9178;51.120;6.192;2023-05-21T14:34:50;32.20;87.30
18103;DHT22;9178;51.120;6.192;2023-05-21T14:37:17;32.20;86.40
18103;DHT22;9178;51.120;6.192;2023-05-21T14:39:45;32.10;84.20
18103;DHT22;9178;51.120;6.192;2023-05-21T14:42:12;32.30;85.90
18103;DHT22;9178;51.120;6.192;2023-05-21T14:44:50;32.40;82.60
18103;DHT22;9178;51.120;6.192;2023-05-21T14:47:18;32.40;84.90
18103;DHT22;9178;51.120;6.192;2023-05-21T14:49:52;32.40;83.60
18103;DHT22;9178;51.120;6.192;2023-05-21T14:52:19;32.40;85.10
18103;DHT22;9178;51.120;6.192;2023-05-21T14:54:49;32.30;84.30
18103;DHT22;9178;51.120;6.192;2023-05-21T14:57:16;32.40;84.20
18103;DHT22;9178;51.120;6.192;2023-05-21T14:59:46;32.60;82.60
18103;DHT22;9178;51.120;6.192;2023-05-21T15:02:20;32.50;83.50
18103;DHT22;9178;51.120;6.192;2023-05-21T15:04:50;32.40;81.90
18103;DHT22;9178;51.120;6.192;2023-05-21T15:07:17;32.20;80.30
18103;DHT22;9178;51.120;6.192;2023-05-21T15:09:44;31.80;82.20
18103;DHT22;9178;51.120;6.192;2023-05-21T15:12:20;31.50;81.80
18103;DHT22;9178;51.120;6.192;2023-05-21T15:14:55;31.30;84.30
18103;DHT22;9178;51.120;6.192;2023-05-21T15:17:22;30.90;81.70
18103;DHT22;9178;51.120;6.192;2023-05-21T15:19:51;30.60;85.30
18103;DHT22;9178;51.120;6.192;2023-05-21T15:22:18;30.40;83.80
18103;DHT22;9178;51.120;6.192;2023-05-21T15:24:47;30.10;86.90
18103;DHT22;9178;51.120;6.192;2023-05-21T15:27:14;30.00;86.30
18103;DHT22;9178;51.120;6.192;2023-05-21T15:29:41;29.90;86.30
18103;DHT22;9178;51.120;6.192;2023-05-21T15:32:22;29.80;87.70
18103;DHT22;9178;51.120;6.192;2023-05-21T15:34:50;29.70;86.80
18103;DHT22;9178;51.120;6.192;2023-05-21T15:37:17;29.60;87.20
18103;DHT22;9178;51.120;6.192;2023-05-21T15:39:46;29.40;87.60
18103;DHT22;9178;51.120;6.192;2023-05-21T15:42:14;29.20;87.60
18103;DHT22;9178;51.120;6.192;2023-05-21T15:44:41;29.00;89.40
18103;DHT22;9178;51.120;6.192;2023-05-21T15:47:08;29.30;88.90
18103;DHT22;9178;51.120;6.192;2023-05-21T15:49:35;29.40;89.10
18103;DHT22;9178;51.120;6.192;2023-05-21T15:52:05;29.40;87.30
18103;DHT22;9178;51.120;6.192;2023-05-21T15:54:32;29.30;88.60
18103;DHT22;9178;51.120;6.192;2023-05-21T15:56:59;29.20;87.60
18103;DHT22;9178;51.120;6.192;2023-05-21T15:59:26;29.20;88.20
18103;DHT22;9178;51.120;6.192;2023-05-21T16:01:55;29.10;88.20
18103;DHT22;9178;51.120;6.192;2023-05-21T16:04:23;29.10;90.00